Time;durP1;ratioP1;P1;durP2;ratioP2;P2;SDS_P1;SDS_P2;PMS_P1;PMS_P2;Temp;Humidity;BMP_temperature;BMP_pressure;BME280_temperature;BME280_humidity;BME280_pressure;Samples;Min_cycle;Max_cycle;Signal;HPM_P1;HPM_P2
2022/12/03 00:00:05;;;;;;;;;;;;;;;6.67;74.82;95922.78;5114901;28;1100;-67
2022/12/03 00:02:31;;;;;;;;;;;;;;;6.73;74.02;95917.81;5115042;28;966;-66
2022/12/03 00:04:57;;;;;;;;;;;;;;;6.74;74.21;95935.47;5115080;28;976;-67
2022/12/03 00:07:23;;;;;;;;;;;;;;;6.57;75.24;95938.59;5096801;28;1041;-67
2022/12/03 00:09:50;;;;;;;;;;;;;;;6.58;75.84;95943.78;5114811;28;1036;-67
2022/12/03 00:12:16;;;;;;;;;;;;;;;6.61;76.07;95950.66;5115176;28;1108;-67
2022/12/03 00:14:42;;;;;;;;;;;;;;;6.59;76.67;95949.94;5096686;28;1910;-66
2022/12/03 00:17:08;;;;;;;;;;;;;;;6.81;75.75;95963.28;5096778;28;1060;-66
2022/12/03 00:19:34;;;;;;;;;;;;;;;6.92;75.85;95969.56;5114489;28;1403;-67
2022/12/03 00:22:00;;;;;;;;;;;;;;;7.07;75.27;95960.41;5114673;28;1043;-67
2022/12/03 00:24:26;;;;;;;;;;;;;;;7.11;74.89;95953.03;5114509;28;1020;-66
2022/12/03 00:26:52;;;;;;;;;;;;;;;7.03;75.18;95945.66;5114438;28;1060;-66
2022/12/03 00:29:18;;;;;;;;;;;;;;;6.96;75.64;95950.63;5114265;28;1061;-67
2022/12/03 00:31:44;;;;;;;;;;;;;;;6.92;76.02;95956.28;5114260;28;1119;-67
2022/12/03 00:34:10;;;;;;;;;;;;;;;6.91;76.30;95958.09;5114423;28;1996;-67
2022/12/03 00:36:36;;;;;;;;;;;;;;;6.90;76.29;95960.88;5114338;28;1044;-66
2022/12/03 00:39:02;;;;;;;;;;;;;;;7.01;76.44;95951.09;5113957;28;1153;-66
2022/12/03 00:41:28;;;;;;;;;;;;;;;7.15;75.75;95952.69;5114019;28;1057;-67
2022/12/03 00:43:56;;;;;;;;;;;;;;;7.24;75.37;95959.91;5114129;28;1005;-66
2022/12/03 00:46:23;;;;;;;;;;;;;;;7.22;75.42;95963.66;5114251;28;1005;-67
2022/12/03 00:48:49;;;;;;;;;;;;;;;7.24;75.52;95970.56;5114268;28;1024;-66
2022/12/03 00:51:15;;;;;;;;;;;;;;;7.22;76.10;95977.81;5113976;28;1057;-67
2022/12/03 00:53:41;;;;;;;;;;;;;;;7.29;75.80;95972.03;5113913;28;1997;-67
2022/12/03 00:56:07;;;;;;;;;;;;;;;7.31;75.85;95970.09;5113951;28;1112;-67
2022/12/03 00:58:33;;;;;;;;;;;;;;;7.29;75.82;95966.72;5113867;28;985;-66
2022/12/03 01:01:00;;;;;;;;;;;;;;;7.31;75.81;95967.44;5114148;28;981;-67
2022/12/03 01:03:26;;;;;;;;;;;;;;;7.28;75.98;95962.34;5113935;28;1001;-67
2022/12/03 01:05:51;;;;;;;;;;;;;;;7.26;76.29;95964.28;5113983;28;986;-67
2022/12/03 01:08:17;;;;;;;;;;;;;;;7.22;76.38;95966.31;5113834;28;1100;-67
2022/12/03 01:10:43;;;;;;;;;;;;;;;7.22;76.08;95963.66;5113743;28;1032;-67
2022/12/03 01:13:09;;;;;;;;;;;;;;;7.15;76.01;95965.97;5113617;28;1905;-66
2022/12/03 01:15:35;;;;;;;;;;;;;;;7.08;75.91;95970.06;5113869;28;1004;-66
2022/12/03 01:18:01;;;;;;;;;;;;;;;7.03;76.21;95975.75;5113844;28;1127;-66
2022/12/03 01:20:28;;;;;;;;;;;;;;;7.04;76.26;95982.75;5113493;28;1080;-66
2022/12/03 01:22:54;;;;;;;;;;;;;;;7.11;75.86;95977.81;5113751;28;1016;-66
2022/12/03 01:25:20;;;;;;;;;;;;;;;7.14;75.68;95982.06;5113630;28;1050;-67
2022/12/03 01:27:46;;;;;;;;;;;;;;;7.14;75.84;95985.56;5113549;28;1008;-66
2022/12/03 01:30:12;;;;;;;;;;;;;;;7.18;75.69;95992.31;5113590;28;1058;-67
2022/12/03 01:32:38;;;;;;;;;;;;;;;7.22;75.74;95998.25;5113639;28;1902;-66
2022/12/03 01:35:05;;;;;;;;;;;;;;;7.16;76.22;95983.63;5113572;28;1057;-67
2022/12/03 01:37:30;;;;;;;;;;;;;;;7.14;76.09;95984.72;5113573;28;1016;-67
2022/12/03 01:39:57;;;;;;;;;;;;;;;7.11;76.02;95988.44;5113419;28;1228;-67
2022/12/03 01:42:29;;;;;;;;;;;;;;;7.12;76.11;95976.84;5113361;28;977;-66
2022/12/03 01:44:56;;;;;;;;;;;;;;;7.11;76.64;95980.47;5113923;28;1049;-67
2022/12/03 01:47:40;;;;;;;;;;;;;;;7.11;76.70;95983.13;5113388;28;1112;-67
2022/12/03 01:50:14;;;;;;;;;;;;;;;7.22;76.42;95980.47;5110362;28;1186;-66
2022/12/03 01:52:40;;;;;;;;;;;;;;;7.24;76.16;95991.84;5117337;28;2003;-66
2022/12/03 01:55:10;;;;;;;;;;;;;;;7.17;76.04;95987.97;5117386;28;1104;-67
2022/12/03 01:57:36;;;;;;;;;;;;;;;7.18;76.26;95983.50;5117295;28;1041;-67
2022/12/03 02:00:03;;;;;;;;;;;;;;;7.16;76.38;95983.63;5117514;28;1177;-67
2022/12/03 02:02:30;;;;;;;;;;;;;;;7.09;76.72;95990.38;5117313;28;1199;-66
2022/12/03 02:04:56;;;;;;;;;;;;;;;6.99;76.76;95992.91;5117301;28;962;-66
2022/12/03 02:07:22;;;;;;;;;;;;;;;7.00;76.61;95983.09;5117019;28;1104;-67
2022/12/03 02:09:48;;;;;;;;;;;;;;;6.98;76.42;95993.00;5117388;28;1024;-67
2022/12/03 02:12:16;;;;;;;;;;;;;;;6.96;76.32;95985.19;5117296;28;1040;-66
2022/12/03 02:14:42;;;;;;;;;;;;;;;6.98;76.54;95974.41;5116996;28;1906;-67
2022/12/03 02:17:09;;;;;;;;;;;;;;;7.00;75.83;95976.00;5117126;28;965;-67
2022/12/03 02:19:35;;;;;;;;;;;;;;;6.96;76.20;95973.69;5116758;28;1201;-66
2022/12/03 02:22:20;;;;;;;;;;;;;;;6.97;76.41;95978.03;5116835;28;1107;-67
2022/12/03 02:25:01;;;;;;;;;;;;;;;6.89;76.64;95986.63;5116887;28;1104;-67
2022/12/03 02:27:28;;;;;;;;;;;;;;;6.56;78.32;95982.88;5116665;28;1029;-66
2022/12/03 02:29:54;;;;;;;;;;;;;;;6.62;78.47;95979.78;5116810;28;1024;-67
2022/12/03 02:32:22;;;;;;;;;;;;;;;6.73;78.25;95976.28;5116697;28;1000;-67
2022/12/03 02:34:48;;;;;;;;;;;;;;;6.82;77.84;95974.75;5116549;28;1902;-67
2022/12/03 02:37:17;;;;;;;;;;;;;;;6.73;78.44;95978.94;5098560;28;1291;-68
2022/12/03 02:39:46;;;;;;;;;;;;;;;6.68;79.22;95982.91;5098275;28;1177;-67
2022/12/03 02:45:00;;;;;;;;;;;;;;;6.98;78.06;95979.72;5116518;28;1036;-67
2022/12/03 02:47:27;;;;;;;;;;;;;;;6.96;78.47;95979.88;5116390;28;1108;-66
2022/12/03 02:49:53;;;;;;;;;;;;;;;6.89;78.86;95980.47;5116393;28;1108;-67
2022/12/03 02:52:19;;;;;;;;;;;;;;;6.92;78.84;95980.19;5116484;28;1009;-67
2022/12/03 02:54:45;;;;;;;;;;;;;;;6.97;78.47;95978.03;5097987;28;1975;-66
2022/12/03 02:57:11;;;;;;;;;;;;;;;6.98;78.62;95974.41;5116316;28;1142;-67
2022/12/03 02:59:37;;;;;;;;;;;;;;;7.14;77.65;95977.56;5116041;28;1069;-67
2022/12/03 03:02:04;;;;;;;;;;;;;;;7.24;77.20;95972.38;5116341;28;1053;-67
2022/12/03 03:04:30;;;;;;;;;;;;;;;7.31;76.92;95978.06;5115990;28;1065;-67
2022/12/03 03:06:56;;;;;;;;;;;;;;;7.35;77.20;95976.84;5116020;28;1109;-67
2022/12/03 03:09:22;;;;;;;;;;;;;;;7.32;77.21;95980.63;5116041;28;1055;-66
2022/12/03 03:11:48;;;;;;;;;;;;;;;7.34;77.17;95970.69;5116008;28;1064;-67
2022/12/03 03:14:14;;;;;;;;;;;;;;;7.24;77.51;95975.88;5115766;28;1996;-66
2022/12/03 03:16:40;;;;;;;;;;;;;;;7.12;77.85;95976.00;5115806;28;1171;-67
2022/12/03 03:19:06;;;;;;;;;;;;;;;7.00;78.62;95967.16;5115536;28;1285;-67
2022/12/03 03:21:32;;;;;;;;;;;;;;;6.91;79.03;95967.88;5115821;28;977;-67
2022/12/03 03:23:58;;;;;;;;;;;;;;;6.83;79.30;95971.16;5115848;28;1013;-67
2022/12/03 03:26:25;;;;;;;;;;;;;;;6.95;78.94;95970.19;5115663;28;976;-67
2022/12/03 03:28:51;;;;;;;;;;;;;;;7.02;78.54;95975.88;5115606;28;1041;-67
2022/12/03 03:31:20;;;;;;;;;;;;;;;6.85;79.08;95977.19;5115532;28;1120;-67
2022/12/03 03:33:47;;;;;;;;;;;;;;;7.02;78.63;95974.06;5115675;28;1906;-67
2022/12/03 03:36:13;;;;;;;;;;;;;;;7.18;77.72;95976.34;5097552;28;1089;-67
2022/12/03 03:38:40;;;;;;;;;;;;;;;7.30;77.42;95979.03;5115395;28;1157;-67
2022/12/03 03:41:07;;;;;;;;;;;;;;;7.36;77.15;95971.44;5115500;28;1043;-66
2022/12/03 03:43:34;;;;;;;;;;;;;;;7.37;76.85;95980.25;5115191;28;981;-67
2022/12/03 03:46:02;;;;;;;;;;;;;;;7.31;76.99;95980.72;5115314;28;1041;-66
2022/12/03 03:48:29;;;;;;;;;;;;;;;7.33;76.95;95984.13;5097080;28;1045;-67
2022/12/03 03:50:55;;;;;;;;;;;;;;;7.26;76.93;95989.06;5115483;28;969;-67
2022/12/03 03:53:22;;;;;;;;;;;;;;;7.20;77.09;95982.41;5115082;28;1898;-67
2022/12/03 03:55:48;;;;;;;;;;;;;;;7.16;77.02;95988.94;5115074;28;1080;-67
2022/12/03 03:58:14;;;;;;;;;;;;;;;7.14;77.28;95988.22;5114990;28;1041;-67
2022/12/03 04:00:44;;;;;;;;;;;;;;;7.13;76.85;95993.66;5115159;28;970;-67
2022/12/03 04:03:11;;;;;;;;;;;;;;;7.11;76.48;95988.44;5115150;28;1048;-67
2022/12/03 04:05:37;;;;;;;;;;;;;;;7.09;76.72;95992.19;5114978;28;956;-67
2022/12/03 04:08:03;;;;;;;;;;;;;;;7.00;77.22;95991.06;5114952;28;1056;-67
2022/12/03 04:13:14;;;;;;;;;;;;;;;7.07;76.97;95984.31;5114428;28;1906;-67
2022/12/03 04:15:40;;;;;;;;;;;;;;;7.07;76.92;95981.66;5115013;28;1032;-67
2022/12/03 04:22:38;;;;;;;;;;;;;;;7.02;77.37;95975.88;5114623;28;1092;-67
2022/12/03 04:23:37;;;;;;;;;;;;;;;7.06;77.56;95979.13;5114661;28;1032;-67
2022/12/03 04:28:47;;;;;;;;;;;;;;;6.70;79.78;95984.50;5114631;28;1059;-67
2022/12/03 04:36:43;;;;;;;;;;;;;;;7.14;78.54;95996.19;5114276;28;1120;-67
2022/12/03 04:39:09;;;;;;;;;;;;;;;7.20;78.36;95995.69;5114254;28;1157;-67
2022/12/03 04:41:35;;;;;;;;;;;;;;;7.28;78.12;95991.59;5114262;28;1048;-67
2022/12/03 04:46:45;;;;;;;;;;;;;;;7.17;78.41;96006.59;5114590;28;1132;-66
2022/12/03 04:49:11;;;;;;;;;;;;;;;7.28;78.09;95995.09;5114251;28;981;-67
2022/12/03 04:51:37;;;;;;;;;;;;;;;7.37;77.70;95999.69;5114157;28;1043;-67
2022/12/03 04:54:03;;;;;;;;;;;;;;;7.33;78.04;96000.91;5113902;28;1994;-68
2022/12/03 04:56:30;;;;;;;;;;;;;;;7.35;78.04;95998.16;5095908;28;1035;-67
2022/12/03 04:58:55;;;;;;;;;;;;;;;7.37;78.03;95998.88;5113974;28;1115;-68
2022/12/03 05:01:21;;;;;;;;;;;;;;;7.43;77.68;96003.69;5113818;28;1050;-68
2022/12/03 05:03:48;;;;;;;;;;;;;;;7.43;77.52;96003.69;5114102;28;1056;-66
2022/12/03 05:06:14;;;;;;;;;;;;;;;7.35;77.69;96011.44;5113786;28;1053;-67
2022/12/03 05:08:40;;;;;;;;;;;;;;;7.25;78.11;96016.66;5113857;28;1048;-67
2022/12/03 05:11:06;;;;;;;;;;;;;;;7.24;77.90;96014.94;5095815;28;989;-68
2022/12/03 05:13:32;;;;;;;;;;;;;;;7.17;78.07;96019.91;5113494;28;1909;-67
2022/12/03 05:15:58;;;;;;;;;;;;;;;7.14;78.16;96006.81;5113975;28;1059;-68
2022/12/03 05:18:24;;;;;;;;;;;;;;;7.18;78.26;96008.28;5095642;28;1234;-68
2022/12/03 05:20:50;;;;;;;;;;;;;;;7.17;78.07;96014.56;5095870;28;993;-67
2022/12/03 05:23:16;;;;;;;;;;;;;;;7.14;78.54;96017.47;5113779;28;1047;-66
2022/12/03 05:25:42;;;;;;;;;;;;;;;7.18;78.32;96010.94;5116303;28;1028;-67
2022/12/03 05:28:08;;;;;;;;;;;;;;;7.20;78.34;96019.66;5117947;28;1048;-68
2022/12/03 05:30:34;;;;;;;;;;;;;;;7.18;78.43;96018.91;5117813;28;1207;-67
2022/12/03 05:33:00;;;;;;;;;;;;;;;7.17;78.48;96025.22;5118019;28;1923;-67
2022/12/03 05:35:26;;;;;;;;;;;;;;;7.19;78.63;96019.75;5117936;28;977;-68
2022/12/03 05:37:52;;;;;;;;;;;;;;;7.21;78.24;96021.34;5117875;28;1109;-67
2022/12/03 05:40:19;;;;;;;;;;;;;;;7.27;78.43;96024.50;5118179;28;1220;-67
2022/12/03 05:42:55;;;;;;;;;;;;;;;7.29;78.62;96023.41;5117488;28;917;-67
2022/12/03 05:45:31;;;;;;;;;;;;;;;7.24;79.15;96029.06;5117589;28;1045;-67
2022/12/03 05:47:58;;;;;;;;;;;;;;;7.24;78.83;96025.56;5117591;28;1049;-68
2022/12/03 05:50:25;;;;;;;;;;;;;;;7.25;78.74;96032.59;5117626;28;973;-68
2022/12/03 05:52:51;;;;;;;;;;;;;;;7.24;79.09;96037.06;5117495;28;1996;-68
2022/12/03 05:55:18;;;;;;;;;;;;;;;7.23;78.97;96034.53;5117360;28;1041;-67
2022/12/03 05:57:44;;;;;;;;;;;;;;;7.23;78.72;96030.06;5117536;28;1082;-67
2022/12/03 06:00:13;;;;;;;;;;;;;;;7.22;79.28;96036.31;5117363;28;898;-67
2022/12/03 06:02:39;;;;;;;;;;;;;;;7.14;79.42;96036.09;5117416;28;1004;-68
2022/12/03 06:05:06;;;;;;;;;;;;;;;7.19;79.27;96041.91;5117239;28;1116;-67
2022/12/03 06:07:33;;;;;;;;;;;;;;;7.18;79.27;96040.19;5099018;28;1045;-67
2022/12/03 06:09:59;;;;;;;;;;;;;;;7.18;79.50;96052.66;5117145;28;1020;-66
2022/12/03 06:12:25;;;;;;;;;;;;;;;7.18;79.77;96050.00;5117416;28;1056;-68
2022/12/03 06:14:53;;;;;;;;;;;;;;;7.19;79.69;96043.69;5117210;28;2000;-67
2022/12/03 06:17:19;;;;;;;;;;;;;;;7.19;79.62;96055.19;5117025;28;1100;-68
2022/12/03 06:19:45;;;;;;;;;;;;;;;7.24;79.32;96053.00;5116765;28;1095;-67
2022/12/03 06:22:12;;;;;;;;;;;;;;;7.29;79.38;96057.16;5098942;28;1002;-67
2022/12/03 06:24:38;;;;;;;;;;;;;;;7.18;79.18;96053.50;5117203;28;1108;-67
2022/12/03 06:27:04;;;;;;;;;;;;;;;7.15;80.71;96058.19;5117081;28;1012;-68
2022/12/03 06:29:30;;;;;;;;;;;;;;;7.19;80.56;96062.31;5116736;28;1037;-67
2022/12/03 06:31:56;;;;;;;;;;;;;;;7.14;81.09;96070.66;5116697;28;1069;-66
2022/12/03 06:34:22;;;;;;;;;;;;;;;7.16;80.72;96071.38;5116534;28;1909;-67
2022/12/03 06:36:51;;;;;;;;;;;;;;;7.26;80.19;96070.69;5116181;28;1049;-67
2022/12/03 06:39:17;;;;;;;;;;;;;;;7.32;79.99;96076.38;5116505;28;1157;-67
2022/12/03 06:41:43;;;;;;;;;;;;;;;7.36;80.06;96074.31;5116719;28;1040;-67
2022/12/03 06:44:09;;;;;;;;;;;;;;;7.43;79.69;96079.03;5116452;28;914;-68
2022/12/03 06:46:35;;;;;;;;;;;;;;;7.48;79.97;96073.38;5116538;28;968;-67
2022/12/03 06:49:03;;;;;;;;;;;;;;;7.49;79.54;96080.38;5116380;28;937;-67
2022/12/03 06:51:29;;;;;;;;;;;;;;;7.54;79.32;96082.69;5116336;28;965;-68
2022/12/03 06:53:55;;;;;;;;;;;;;;;7.57;79.86;96082.44;5116227;28;1910;-67
2022/12/03 06:56:21;;;;;;;;;;;;;;;7.62;79.72;96085.59;5116382;28;994;-67
2022/12/03 06:58:47;;;;;;;;;;;;;;;7.63;79.74;96082.81;5116408;28;1000;-67
2022/12/03 07:01:13;;;;;;;;;;;;;;;7.63;80.07;96082.81;5116168;28;1057;-72
2022/12/03 07:03:39;;;;;;;;;;;;;;;7.64;79.74;96086.31;5116022;28;1121;-67
2022/12/03 07:06:06;;;;;;;;;;;;;;;7.66;79.70;96089.72;5116122;28;1044;-67
2022/12/03 07:08:32;;;;;;;;;;;;;;;7.59;80.17;96096.50;5116397;28;961;-66
2022/12/03 07:10:58;;;;;;;;;;;;;;;7.63;80.20;96098.78;5115990;28;1100;-66
2022/12/03 07:13:24;;;;;;;;;;;;;;;7.68;79.98;96093.09;5115799;28;1894;-67
2022/12/03 07:15:51;;;;;;;;;;;;;;;7.76;79.46;96095.19;5116001;28;1029;-66
2022/12/03 07:18:17;;;;;;;;;;;;;;;7.82;79.30;96097.34;5115686;28;1116;-67
2022/12/03 07:20:43;;;;;;;;;;;;;;;7.77;79.22;96100.38;5115745;28;1060;-67
2022/12/03 07:23:09;;;;;;;;;;;;;;;7.72;79.47;96099.91;5115745;28;1115;-66
2022/12/03 07:25:35;;;;;;;;;;;;;;;7.69;79.67;96100.13;5097568;28;1120;-66
2022/12/03 07:28:01;;;;;;;;;;;;;;;7.68;79.89;96108.22;5115890;28;965;-66
2022/12/03 07:30:27;;;;;;;;;;;;;;;7.73;80.18;96112.22;5115549;28;1111;-67
2022/12/03 07:32:53;;;;;;;;;;;;;;;7.77;79.71;96118.16;5097348;28;1996;-66
2022/12/03 07:35:20;;;;;;;;;;;;;;;7.77;80.06;96124.31;5115631;28;962;-68
2022/12/03 07:37:46;;;;;;;;;;;;;;;7.79;79.63;96116.22;5097523;28;976;-67
2022/12/03 07:40:12;;;;;;;;;;;;;;;7.78;79.60;96117.22;5115617;28;1176;-67
2022/12/03 07:42:38;;;;;;;;;;;;;;;7.76;79.58;96114.66;5115260;28;1279;-67
2022/12/03 07:45:05;;;;;;;;;;;;;;;7.82;80.09;96116.84;5115363;28;1116;-71
2022/12/03 07:47:31;;;;;;;;;;;;;;;7.96;80.01;96122.88;5096384;28;1545;-68
2022/12/03 07:49:57;;;;;;;;;;;;;;;8.05;79.51;96122.16;5097359;28;1016;-68
2022/12/03 07:52:23;;;;;;;;;;;;;;;8.12;79.37;96119.84;5115081;28;1081;-67
2022/12/03 07:54:49;;;;;;;;;;;;;;;8.12;79.26;96122.50;5115148;28;1909;-68
2022/12/03 07:57:15;;;;;;;;;;;;;;;8.08;79.40;96118.41;5080495;28;1618;-67
2022/12/03 07:59:41;;;;;;;;;;;;;;;7.98;80.38;96126.28;5112238;28;1482;-67
2022/12/03 08:02:07;;;;;;;;;;;;;;;7.91;80.36;96123.25;5114888;28;1262;-68
2022/12/03 08:04:33;;;;;;;;;;;;;;;7.91;80.56;96130.38;5096909;28;1112;-67
2022/12/03 08:06:59;;;;;;;;;;;;;;;7.79;80.32;96130.38;5114863;28;1065;-67
2022/12/03 08:09:25;;;;;;;;;;;;;;;7.68;81.20;96137.50;5097080;28;1032;-67
2022/12/03 08:11:52;;;;;;;;;;;;;;;7.67;81.09;96139.34;5114620;28;1117;-67
2022/12/03 08:14:19;;;;;;;;;;;;;;;7.72;81.30;96133.63;5114749;28;1996;-67
2022/12/03 08:16:45;;;;;;;;;;;;;;;7.86;81.23;96133.41;5115037;28;1398;-68
2022/12/03 08:19:12;;;;;;;;;;;;;;;8.01;80.24;96131.38;5114582;28;1319;-68
2022/12/03 08:21:39;;;;;;;;;;;;;;;8.08;80.19;96132.59;5114344;28;1196;-67
2022/12/03 08:24:16;;;;;;;;;;;;;;;8.05;79.89;96134.63;5114877;28;1040;-67
2022/12/03 08:26:43;;;;;;;;;;;;;;;8.01;80.13;96131.38;5114654;28;1064;-68
2022/12/03 08:29:11;;;;;;;;;;;;;;;8.01;80.83;96132.22;5114701;28;1017;-67
2022/12/03 08:31:37;;;;;;;;;;;;;;;8.03;80.95;96129.44;5114171;28;1059;-67
2022/12/03 08:34:19;;;;;;;;;;;;;;;8.06;80.95;96133.66;5114317;28;2020;-66
2022/12/03 08:36:50;;;;;;;;;;;;;;;8.17;80.44;96133.66;5114579;28;1032;-67
2022/12/03 08:39:28;;;;;;;;;;;;;;;8.25;80.17;96130.38;5114482;28;1339;-67
2022/12/03 08:45:17;;;;;;;;;;;;;;;8.26;79.15;96127.59;5114181;28;1109;-67
2022/12/03 08:48:04;;;;;;;;;;;;;;;8.31;79.19;96117.41;5080110;28;1171;-68
2022/12/03 08:50:37;;;;;;;;;;;;;;;8.35;79.20;96121.53;5113867;28;1328;-68
2022/12/03 08:53:12;;;;;;;;;;;;;;;8.39;79.58;96125.63;5114053;28;1909;-67
2022/12/03 08:55:40;;;;;;;;;;;;;;;8.41;78.87;96122.84;5114190;28;1024;-67
2022/12/03 08:58:30;;;;;;;;;;;;;;;8.40;78.78;96127.34;5095961;28;1042;-67
2022/12/03 09:01:05;;;;;;;;;;;;;;;8.51;78.59;96130.97;5113760;28;1041;-68
2022/12/03 09:03:32;;;;;;;;;;;;;;;8.59;78.22;96123.19;5113977;28;1029;-69
2022/12/03 09:05:58;;;;;;;;;;;;;;;8.67;78.68;96119.91;5096177;28;1060;-65
2022/12/03 09:08:25;;;;;;;;;;;;;;;8.74;78.82;96118.44;5113820;28;1061;-65
2022/12/03 09:10:51;;;;;;;;;;;;;;;8.77;78.63;96127.03;5113697;28;1060;-65
2022/12/03 09:13:17;;;;;;;;;;;;;;;8.86;78.40;96114.78;5113906;28;1874;-67
2022/12/03 09:15:43;;;;;;;;;;;;;;;8.87;78.66;96123.59;5113816;28;1162;-66
2022/12/03 09:18:10;;;;;;;;;;;;;;;8.82;78.63;96117.78;5113712;28;1108;-68
2022/12/03 09:20:36;;;;;;;;;;;;;;;8.78;78.61;96119.88;5113679;28;1081;-66
2022/12/03 09:23:02;;;;;;;;;;;;;;;8.75;78.62;96112.97;5113951;28;1065;-67
2022/12/03 09:25:28;;;;;;;;;;;;;;;8.69;78.87;96113.50;5113796;28;1025;-67
2022/12/03 09:27:54;;;;;;;;;;;;;;;8.70;78.62;96104.50;5113814;28;917;-67
2022/12/03 09:30:20;;;;;;;;;;;;;;;8.71;78.52;96105.38;5113827;28;993;-67
2022/12/03 09:32:46;;;;;;;;;;;;;;;8.72;78.81;96102.56;5113337;28;1051;-67
2022/12/03 09:35:12;;;;;;;;;;;;;;;8.67;78.93;96103.91;5095589;28;1914;-67
2022/12/03 09:37:38;;;;;;;;;;;;;;;8.68;79.47;96101.13;5113798;28;1035;-67
2022/12/03 09:40:05;;;;;;;;;;;;;;;8.67;78.99;96095.91;5113705;28;1162;-67
2022/12/03 09:42:31;;;;;;;;;;;;;;;8.71;78.51;96100.03;5113384;28;1029;-67
2022/12/03 09:44:57;;;;;;;;;;;;;;;8.63;78.93;96092.63;5113524;28;1108;-67
2022/12/03 09:47:24;;;;;;;;;;;;;;;8.71;78.76;96089.38;5113643;28;1843;-67
2022/12/03 09:49:50;;;;;;;;;;;;;;;8.81;78.32;96084.13;5113523;28;1092;-67
2022/12/03 09:52:20;;;;;;;;;;;;;;;8.86;77.28;96087.22;5095394;28;1157;-67
2022/12/03 09:54:46;;;;;;;;;;;;;;;8.88;77.93;96096.81;5113377;28;1905;-67
2022/12/03 09:57:12;;;;;;;;;;;;;;;8.90;78.06;96092.19;5113427;28;1065;-67
2022/12/03 09:59:38;;;;;;;;;;;;;;;8.95;78.06;96095.34;5113396;28;986;-67
2022/12/03 10:02:14;;;;;;;;;;;;;;;8.92;76.79;96090.25;5095108;28;1044;-67
2022/12/03 10:04:40;;;;;;;;;;;;;;;8.99;76.93;96090.56;5113347;28;1053;-67
2022/12/03 10:07:08;;;;;;;;;;;;;;;9.04;76.95;96079.53;5112547;28;1235;-67
2022/12/03 10:09:34;;;;;;;;;;;;;;;9.06;76.00;96083.75;5113373;28;965;-67
2022/12/03 10:12:00;;;;;;;;;;;;;;;9.05;75.83;96079.41;5116302;28;1055;-66
2022/12/03 10:14:26;;;;;;;;;;;;;;;9.08;76.58;96081.78;5116974;28;1980;-67
2022/12/03 10:16:52;;;;;;;;;;;;;;;9.11;75.59;96076.22;5116890;28;1251;-67
2022/12/03 10:19:23;;;;;;;;;;;;;;;9.15;75.13;96072.31;5116898;28;1215;-67
2022/12/03 10:21:49;;;;;;;;;;;;;;;9.10;75.35;96066.50;5117200;28;976;-67
2022/12/03 10:24:15;;;;;;;;;;;;;;;9.11;75.70;96065.53;5116993;28;1108;-68
2022/12/03 10:26:42;;;;;;;;;;;;;;;9.13;76.07;96060.09;5116849;28;1116;-67
2022/12/03 10:29:12;;;;;;;;;;;;;;;9.14;75.31;96056.41;5116655;28;1163;-67
2022/12/03 10:31:38;;;;;;;;;;;;;;;9.06;75.73;96054.41;5116759;28;1079;-68
2022/12/03 10:34:05;;;;;;;;;;;;;;;9.02;76.25;96060.97;5116715;28;1983;-67
2022/12/03 10:36:31;;;;;;;;;;;;;;;9.07;75.09;96053.44;5116686;28;1037;-67
2022/12/03 10:39:13;;;;;;;;;;;;;;;9.10;75.42;96058.50;5116341;28;1174;-67
2022/12/03 10:41:40;;;;;;;;;;;;;;;9.15;75.65;96050.13;5116530;28;1049;-67
2022/12/03 10:44:11;;;;;;;;;;;;;;;9.25;75.88;96044.84;5116825;28;1040;-68
2022/12/03 10:46:37;;;;;;;;;;;;;;;9.19;75.75;96049.72;5098588;28;1052;-67
2022/12/03 10:49:07;;;;;;;;;;;;;;;8.97;76.04;96040.03;5116411;28;1144;-68
2022/12/03 10:51:34;;;;;;;;;;;;;;;9.12;75.91;96037.88;5116394;28;1116;-68
2022/12/03 10:54:00;;;;;;;;;;;;;;;9.23;75.62;96041.47;5116439;28;1913;-68
2022/12/03 10:56:26;;;;;;;;;;;;;;;9.27;75.85;96035.72;5116298;28;1059;-66
2022/12/03 10:58:53;;;;;;;;;;;;;;;9.33;75.70;96034.34;5098236;28;1316;-68
2022/12/03 11:01:24;;;;;;;;;;;;;;;9.37;75.50;96033.09;5116560;28;973;-68
2022/12/03 11:03:50;;;;;;;;;;;;;;;9.31;76.17;96030.97;5116301;28;1056;-68
2022/12/03 11:06:20;;;;;;;;;;;;;;;9.26;76.88;96033.16;5116333;28;1040;-68
2022/12/03 11:08:48;;;;;;;;;;;;;;;9.18;76.99;96029.38;5115867;28;1084;-68
2022/12/03 11:11:19;;;;;;;;;;;;;;;9.22;77.00;96027.28;5116327;28;1033;-68
2022/12/03 11:13:48;;;;;;;;;;;;;;;9.11;77.01;96028.19;5116181;28;1910;-68
2022/12/03 11:16:34;;;;;;;;;;;;;;;8.92;78.18;96023.56;5116017;28;1127;-68
2022/12/03 11:19:01;;;;;;;;;;;;;;;8.89;78.52;96030.97;5115418;28;1163;-68
2022/12/03 11:21:27;;;;;;;;;;;;;;;9.02;78.07;96018.28;5097501;28;942;-68
2022/12/03 11:23:57;;;;;;;;;;;;;;;9.03;77.98;96019.13;5096894;28;1468;-67
2022/12/03 11:26:26;;;;;;;;;;;;;;;9.13;77.78;96023.56;5115732;28;1547;-68
2022/12/03 11:28:53;;;;;;;;;;;;;;;9.13;77.58;96015.56;5115563;28;1070;-68
2022/12/03 11:31:55;;;;;;;;;;;;;;;9.23;77.05;96014.78;5115810;28;1042;-68
2022/12/03 11:34:24;;;;;;;;;;;;;;;9.22;76.78;96010.41;5032778;28;1985;-67
2022/12/03 11:37:08;;;;;;;;;;;;;;;9.13;77.33;96010.22;5100614;28;1102;-68
2022/12/03 11:39:43;;;;;;;;;;;;;;;9.21;77.40;96014.91;5115505;28;1248;-68
2022/12/03 11:42:24;;;;;;;;;;;;;;;9.30;77.53;96010.59;5115522;28;968;-68
2022/12/03 11:45:02;;;;;;;;;;;;;;;8.99;77.47;96005.22;5115288;28;1554;-68
2022/12/03 11:47:30;;;;;;;;;;;;;;;9.07;77.60;96000.09;5115077;28;1201;-68
2022/12/03 11:49:56;;;;;;;;;;;;;;;9.22;77.13;96003.25;5097432;28;1016;-68
2022/12/03 11:52:24;;;;;;;;;;;;;;;9.31;76.58;96001.59;5115229;28;1041;-68
2022/12/03 11:54:56;;;;;;;;;;;;;;;9.36;76.48;95994.91;5115140;28;1984;-68
2022/12/03 11:57:30;;;;;;;;;;;;;;;9.35;76.05;95990.56;5115077;28;1265;-68
2022/12/03 11:59:57;;;;;;;;;;;;;;;9.32;75.90;96003.31;5115260;28;980;-68
2022/12/03 12:02:23;;;;;;;;;;;;;;;9.33;76.15;96000.53;5115088;28;1024;-68
2022/12/03 12:04:49;;;;;;;;;;;;;;;9.30;76.68;95992.75;5115165;28;1320;-68
2022/12/03 12:07:35;;;;;;;;;;;;;;;9.28;76.53;96001.88;5096613;28;1252;-67
2022/12/03 12:10:02;;;;;;;;;;;;;;;9.34;76.73;95998.69;5097016;28;1024;-68
2022/12/03 12:12:37;;;;;;;;;;;;;;;9.40;76.85;95994.63;5096762;28;1041;-67
2022/12/03 12:15:21;;;;;;;;;;;;;;;9.40;76.77;95998.16;5114914;28;1980;-67
2022/12/03 12:17:47;;;;;;;;;;;;;;;9.31;77.26;95993.59;5114478;28;1183;-68
2022/12/03 12:20:25;;;;;;;;;;;;;;;9.21;77.90;95996.22;5089687;28;1286;-69
2022/12/03 12:22:52;;;;;;;;;;;;;;;9.17;78.64;95987.63;5112275;28;1212;-69
2022/12/03 12:25:35;;;;;;;;;;;;;;;8.93;78.95;95995.91;5114364;28;1090;-67
2022/12/03 12:28:01;;;;;;;;;;;;;;;8.68;79.32;95994.47;5114576;28;1038;-66
2022/12/03 12:30:27;;;;;;;;;;;;;;;8.67;80.01;95994.59;5114390;28;1058;-68
2022/12/03 12:32:56;;;;;;;;;;;;;;;8.83;79.83;95992.34;5114601;28;969;-68
2022/12/03 12:35:26;;;;;;;;;;;;;;;8.94;79.11;95994.09;5113908;28;1928;-68
2022/12/03 12:37:59;;;;;;;;;;;;;;;9.04;78.42;95992.31;5114582;28;1312;-67
2022/12/03 12:40:27;;;;;;;;;;;;;;;9.06;78.40;95990.38;5093970;28;1053;-68
2022/12/03 12:42:56;;;;;;;;;;;;;;;9.02;78.50;95986.28;5093967;28;921;-67
2022/12/03 12:45:26;;;;;;;;;;;;;;;9.08;78.24;95983.09;5113039;28;1185;-67
2022/12/03 12:47:58;;;;;;;;;;;;;;;9.07;78.45;95986.75;5114452;28;1054;-67
2022/12/03 12:50:24;;;;;;;;;;;;;;;8.96;78.46;95986.81;5114223;28;1143;-68
2022/12/03 12:52:52;;;;;;;;;;;;;;;8.83;78.84;95981.66;5114205;28;1049;-68
2022/12/03 12:55:18;;;;;;;;;;;;;;;8.91;78.76;95983.69;5113795;28;1989;-68
2022/12/03 12:57:45;;;;;;;;;;;;;;;8.87;78.60;95977.75;5114048;28;964;-68
2022/12/03 13:00:18;;;;;;;;;;;;;;;9.00;77.73;95977.56;5114338;28;1212;-68
2022/12/03 13:02:48;;;;;;;;;;;;;;;9.08;77.85;95980.41;5113999;28;1037;-68
2022/12/03 13:05:15;;;;;;;;;;;;;;;9.08;77.95;95980.41;5113782;28;1053;-68
2022/12/03 13:07:42;;;;;;;;;;;;;;;8.85;78.37;95974.38;5113906;28;1115;-67
2022/12/03 13:10:31;;;;;;;;;;;;;;;8.98;78.34;95982.19;5113919;28;1057;-67
2022/12/03 13:13:01;;;;;;;;;;;;;;;9.08;77.08;95977.75;5114163;28;1040;-67
2022/12/03 13:15:46;;;;;;;;;;;;;;;9.11;76.48;95980.16;5113638;28;1975;-68
2022/12/03 13:18:30;;;;;;;;;;;;;;;9.15;77.05;95975.41;5113827;28;1041;-68
2022/12/03 13:20:56;;;;;;;;;;;;;;;9.12;76.72;95975.66;5113844;28;1218;-68
2022/12/03 13:23:26;;;;;;;;;;;;;;;9.12;76.77;95981.84;5095679;28;1282;-68
2022/12/03 13:25:52;;;;;;;;;;;;;;;9.24;76.46;95982.63;5113808;28;1057;-68
2022/12/03 13:28:18;;;;;;;;;;;;;;;9.30;75.93;95979.41;5113833;28;1032;-68
2022/12/03 13:30:44;;;;;;;;;;;;;;;9.20;76.27;95983.88;5113787;28;972;-68
2022/12/03 13:33:24;;;;;;;;;;;;;;;9.25;76.44;95980.78;5113527;28;1913;-68
2022/12/03 13:35:51;;;;;;;;;;;;;;;9.30;76.27;95984.75;5095909;28;1004;-66